createdAt,value
2019-03-04T00:01:46.031Z,5.62
2019-03-04T00:04:15.503Z,5.49
2019-03-04T00:06:44.996Z,5.24
2019-03-04T00:09:14.450Z,4.93
2019-03-04T00:11:43.961Z,4.75
2019-03-04T00:14:13.405Z,4.63
2019-03-04T00:16:42.897Z,4.49
2019-03-04T00:19:12.394Z,4.20
2019-03-04T00:21:41.859Z,4.03
2019-03-04T00:24:11.338Z,3.91
2019-03-04T00:26:40.820Z,3.94
2019-03-04T00:29:10.309Z,3.92
2019-03-04T00:31:39.800Z,3.80
2019-03-04T00:34:09.330Z,3.79
2019-03-04T00:36:38.786Z,3.78
2019-03-04T00:39:11.456Z,3.79
2019-03-04T00:41:41.061Z,3.76
2019-03-04T00:44:10.509Z,3.69
2019-03-04T00:46:39.999Z,3.76
2019-03-04T00:49:09.492Z,3.80
2019-03-04T00:51:39.005Z,3.82
2019-03-04T00:54:08.479Z,3.75
2019-03-04T00:56:37.995Z,3.73
2019-03-04T00:59:07.475Z,3.70
2019-03-04T01:01:36.955Z,3.74
2019-03-04T01:04:06.482Z,3.67
2019-03-04T01:06:35.973Z,3.65
2019-03-04T01:09:08.124Z,3.58
2019-03-04T01:11:37.633Z,3.56
2019-03-04T01:14:07.098Z,3.51
2019-03-04T01:16:36.622Z,3.47
2019-03-04T01:19:06.106Z,3.43
2019-03-04T01:21:35.604Z,3.41
2019-03-04T01:24:05.100Z,3.28
2019-03-04T01:26:34.610Z,3.30
2019-03-04T01:29:04.213Z,3.32
2019-03-04T01:31:33.679Z,3.30
2019-03-04T01:34:03.178Z,3.39
2019-03-04T01:36:32.752Z,3.35
2019-03-04T01:39:02.231Z,3.40
2019-03-04T01:41:31.742Z,3.45
2019-03-04T01:44:01.233Z,3.43
2019-03-04T01:46:30.721Z,3.46
2019-03-04T01:49:00.225Z,3.48
2019-03-04T01:51:29.717Z,3.51
2019-03-04T01:53:59.187Z,3.51
2019-03-04T01:56:28.672Z,3.50
2019-03-04T01:58:58.178Z,3.45
2019-03-04T02:01:27.675Z,3.45
2019-03-04T02:03:57.248Z,3.48
2019-03-04T02:06:26.729Z,3.41
2019-03-04T02:08:56.160Z,3.40
2019-03-04T02:11:25.653Z,3.38
2019-03-04T02:13:55.150Z,3.42
2019-03-04T02:16:24.640Z,3.44
2019-03-04T02:18:54.123Z,3.34
2019-03-04T02:21:23.653Z,3.37
2019-03-04T02:23:53.125Z,3.41
2019-03-04T02:26:32.391Z,3.43
2019-03-04T02:29:01.899Z,3.47
2019-03-04T02:31:31.374Z,3.44
2019-03-04T02:34:00.861Z,3.41
2019-03-04T02:36:32.066Z,3.40
2019-03-04T02:39:01.578Z,3.35
2019-03-04T02:41:31.058Z,3.34
2019-03-04T02:44:00.538Z,3.30
2019-03-04T02:46:30.038Z,3.23
2019-03-04T02:48:59.524Z,3.18
2019-03-04T02:51:29.027Z,3.25
2019-03-04T02:53:58.509Z,3.24
2019-03-04T02:56:28.019Z,3.24
2019-03-04T02:58:57.497Z,3.23
2019-03-04T03:01:26.970Z,3.21
2019-03-04T03:03:56.469Z,3.18
2019-03-04T03:06:25.958Z,3.12
2019-03-04T03:08:55.429Z,3.02
2019-03-04T03:11:24.965Z,2.96
2019-03-04T03:13:54.431Z,2.92
2019-03-04T03:16:23.893Z,2.89
2019-03-04T03:18:53.386Z,2.95
2019-03-04T03:21:22.876Z,3.04
2019-03-04T03:23:52.329Z,3.08
2019-03-04T03:26:21.808Z,3.09
2019-03-04T03:28:51.293Z,3.08
2019-03-04T03:31:20.779Z,3.08
2019-03-04T03:33:50.270Z,3.11
2019-03-04T03:36:19.745Z,3.11
2019-03-04T03:38:49.251Z,3.04
2019-03-04T03:41:18.755Z,3.10
2019-03-04T03:43:48.228Z,3.12
2019-03-04T03:46:17.723Z,3.11
2019-03-04T03:48:47.220Z,3.12
2019-03-04T03:51:16.802Z,3.07
2019-03-04T03:53:46.322Z,3.12
2019-03-04T03:56:15.805Z,3.09
2019-03-04T03:58:45.279Z,3.05
2019-03-04T04:01:14.751Z,3.04
2019-03-04T04:03:44.245Z,3.09
2019-03-04T04:06:13.763Z,3.08
2019-03-04T04:08:43.260Z,3.13
2019-03-04T04:11:12.727Z,3.11
2019-03-04T04:13:42.231Z,3.13
2019-03-04T04:16:11.726Z,3.06
2019-03-04T04:18:41.203Z,3.03
2019-03-04T04:21:10.683Z,2.99
2019-03-04T04:23:40.181Z,3.02
2019-03-04T04:26:21.813Z,2.97
2019-03-04T04:28:58.034Z,2.95
2019-03-04T04:31:27.533Z,2.91
2019-03-04T04:33:57.022Z,2.86
2019-03-04T04:36:26.523Z,2.86
2019-03-04T04:38:56.006Z,2.88
2019-03-04T04:41:25.486Z,2.94
2019-03-04T04:43:55.006Z,2.85
2019-03-04T04:47:02.568Z,2.73
2019-03-04T04:49:33.601Z,2.65
2019-03-04T04:52:03.100Z,2.77
2019-03-04T04:54:32.606Z,2.78
2019-03-04T04:57:02.150Z,2.73
2019-03-04T04:59:31.643Z,2.78
2019-03-04T05:02:01.146Z,2.83
2019-03-04T05:04:30.621Z,2.77
2019-03-04T05:07:00.107Z,2.74
2019-03-04T05:09:29.595Z,2.78
2019-03-04T05:11:59.860Z,2.76
2019-03-04T05:14:29.417Z,2.71
2019-03-04T05:16:58.899Z,2.74
2019-03-04T05:19:28.422Z,2.82
2019-03-04T05:21:57.998Z,2.79
2019-03-04T05:24:29.534Z,2.82
2019-03-04T05:26:58.683Z,2.77
2019-03-04T05:29:28.225Z,2.77
2019-03-04T05:31:57.716Z,2.79
2019-03-04T05:34:27.199Z,2.80
2019-03-04T05:36:56.860Z,2.92
2019-03-04T05:39:26.298Z,3.00
2019-03-04T05:41:55.776Z,3.10
2019-03-04T05:44:25.246Z,3.15
2019-03-04T05:46:54.770Z,3.27
2019-03-04T05:49:24.265Z,3.35
2019-03-04T05:51:53.735Z,3.38
2019-03-04T05:54:23.232Z,3.24
2019-03-04T05:56:52.741Z,3.31
2019-03-04T05:59:22.253Z,3.36
2019-03-04T06:02:10.995Z,3.31
2019-03-04T06:04:41.807Z,3.35
2019-03-04T06:07:33.503Z,3.37
2019-03-04T06:10:02.997Z,3.40
2019-03-04T06:12:32.485Z,3.48
2019-03-04T06:15:01.986Z,3.56
2019-03-04T06:17:31.477Z,3.57
2019-03-04T06:20:00.981Z,3.63
2019-03-04T06:22:30.489Z,3.72
2019-03-04T06:24:59.990Z,3.83
2019-03-04T06:27:29.507Z,3.94
2019-03-04T06:29:59.002Z,3.99
2019-03-04T06:32:28.504Z,4.07
2019-03-04T06:34:57.967Z,4.14
2019-03-04T06:37:27.443Z,4.28
2019-03-04T06:39:56.922Z,4.36
2019-03-04T06:42:26.385Z,4.39
2019-03-04T06:44:55.874Z,4.50
2019-03-04T06:47:25.381Z,4.64
2019-03-04T06:49:54.917Z,4.66
2019-03-04T06:52:25.404Z,4.72
2019-03-04T06:55:07.778Z,4.71
2019-03-04T06:57:41.296Z,4.79
2019-03-04T07:00:33.801Z,4.98
2019-03-04T07:03:09.939Z,5.04
2019-03-04T07:05:52.642Z,5.21
2019-03-04T07:09:09.991Z,5.16
2019-03-04T07:11:43.872Z,5.23
2019-03-04T07:14:13.431Z,5.22
2019-03-04T07:16:42.937Z,5.18
2019-03-04T07:19:32.529Z,5.21
2019-03-04T07:22:02.051Z,5.34
2019-03-04T07:24:31.601Z,5.44
2019-03-04T07:27:01.142Z,5.41
2019-03-04T07:29:30.647Z,5.62
2019-03-04T07:32:00.222Z,5.75
2019-03-04T07:34:29.747Z,5.85
2019-03-04T07:36:59.249Z,5.86
2019-03-04T07:39:29.085Z,5.97
2019-03-04T07:41:59.819Z,6.05
2019-03-04T07:44:29.308Z,6.14
2019-03-04T07:46:58.859Z,6.17
2019-03-04T07:49:28.291Z,6.21
2019-03-04T07:51:57.827Z,6.25
2019-03-04T07:54:27.402Z,6.28
2019-03-04T07:56:56.926Z,6.36
2019-03-04T07:59:26.449Z,6.38
2019-03-04T08:01:55.971Z,6.46
2019-03-04T08:04:25.490Z,6.53
2019-03-04T08:07:23.175Z,6.48
2019-03-04T08:10:18.561Z,6.55
2019-03-04T08:13:11.812Z,6.61
2019-03-04T08:15:46.512Z,6.78
2019-03-04T08:18:16.033Z,6.83
2019-03-04T08:20:45.538Z,6.87
2019-03-04T08:23:15.016Z,6.89
2019-03-04T08:25:44.516Z,6.96
2019-03-04T08:28:15.400Z,7.02
2019-03-04T08:30:45.040Z,7.07
2019-03-04T08:33:14.569Z,7.24
2019-03-04T08:35:44.046Z,7.31
2019-03-04T08:38:13.559Z,7.42
2019-03-04T08:40:43.044Z,7.57
2019-03-04T08:43:12.509Z,7.52
2019-03-04T08:45:41.983Z,7.58
2019-03-04T08:48:11.486Z,7.60
2019-03-04T08:50:40.982Z,7.73
2019-03-04T08:53:10.492Z,7.76
2019-03-04T08:55:39.993Z,7.85
2019-03-04T08:58:09.505Z,7.99
2019-03-04T09:00:39.009Z,8.03
2019-03-04T09:03:08.749Z,8.10
2019-03-04T09:05:38.245Z,8.19
2019-03-04T09:08:07.720Z,8.34
2019-03-04T09:10:37.266Z,8.39
2019-03-04T09:13:06.763Z,8.42
2019-03-04T09:15:36.415Z,8.37
2019-03-04T09:18:05.890Z,8.58
2019-03-04T09:20:35.467Z,8.71
2019-03-04T09:23:04.975Z,8.71
2019-03-04T09:25:37.250Z,8.73
2019-03-04T09:28:06.888Z,8.80
2019-03-04T09:30:36.418Z,8.82
2019-03-04T09:33:05.953Z,8.92
2019-03-04T09:35:35.468Z,9.03
2019-03-04T09:38:05.626Z,9.03
2019-03-04T09:40:35.197Z,9.17
2019-03-04T09:43:04.810Z,9.22
2019-03-04T09:45:38.979Z,9.30
2019-03-04T09:48:05.816Z,9.39
2019-03-04T09:50:35.279Z,9.53
2019-03-04T09:53:04.800Z,9.54
2019-03-04T09:55:34.335Z,9.67
2019-03-04T09:58:05.315Z,9.80
2019-03-04T10:00:43.604Z,9.95
2019-03-04T10:03:34.123Z,10.09
2019-03-04T10:06:34.901Z,10.27
2019-03-04T10:09:40.246Z,10.42
2019-03-04T10:12:50.921Z,10.44
2019-03-04T10:15:52.694Z,10.51
2019-03-04T10:19:04.631Z,10.63
2019-03-04T10:22:08.170Z,10.75
2019-03-04T10:25:29.606Z,10.79
2019-03-04T10:28:35.871Z,10.93
2019-03-04T10:31:36.127Z,11.07
2019-03-04T10:34:32.062Z,11.14
2019-03-04T10:37:35.083Z,11.35
2019-03-04T10:40:29.789Z,11.57
2019-03-04T10:43:41.173Z,11.67
2019-03-04T10:46:46.375Z,11.82
2019-03-04T10:49:15.897Z,11.86
2019-03-04T10:51:45.408Z,11.98
2019-03-04T10:54:14.992Z,12.13
2019-03-04T10:56:44.521Z,12.19
2019-03-04T10:59:14.043Z,12.13
2019-03-04T11:01:43.559Z,12.20
2019-03-04T11:04:13.091Z,12.31
2019-03-04T11:06:42.596Z,12.33
2019-03-04T11:09:12.342Z,12.37
2019-03-04T11:11:41.797Z,12.51
2019-03-04T11:14:11.325Z,12.62
2019-03-04T11:16:40.906Z,12.62
2019-03-04T11:19:10.478Z,12.77
2019-03-04T11:21:39.989Z,12.88
2019-03-04T11:24:11.149Z,13.00
2019-03-04T11:26:40.792Z,12.99
2019-03-04T11:29:13.269Z,13.02
2019-03-04T11:31:42.598Z,13.08
2019-03-04T11:34:12.081Z,13.10
2019-03-04T11:36:41.602Z,13.11
2019-03-04T11:40:03.864Z,13.07
2019-03-04T11:42:33.392Z,13.25
2019-03-04T11:45:02.961Z,13.33
2019-03-04T11:47:32.501Z,13.21
2019-03-04T11:50:01.989Z,13.24
2019-03-04T11:52:31.473Z,13.48
2019-03-04T11:55:00.993Z,13.46
2019-03-04T11:57:30.564Z,13.43
2019-03-04T12:00:00.083Z,13.35
2019-03-04T12:02:38.855Z,13.37
2019-03-04T12:05:03.420Z,13.40
2019-03-04T12:07:32.910Z,13.44
2019-03-04T12:10:02.595Z,13.41
2019-03-04T12:12:32.124Z,13.47
2019-03-04T12:15:01.720Z,13.68
2019-03-04T12:17:31.227Z,13.68
2019-03-04T12:20:00.816Z,13.72
2019-03-04T12:22:30.433Z,13.70
2019-03-04T12:24:59.914Z,13.72
2019-03-04T12:27:29.397Z,13.74
2019-03-04T12:29:58.988Z,13.85
2019-03-04T12:32:37.446Z,14.02
2019-03-04T12:35:09.985Z,14.16
2019-03-04T12:37:39.480Z,14.26
2019-03-04T12:40:10.845Z,14.21
2019-03-04T12:42:40.346Z,14.08
2019-03-04T12:45:12.145Z,14.04
2019-03-04T12:47:42.059Z,13.96
2019-03-04T12:50:29.843Z,14.15
2019-03-04T12:52:59.365Z,14.23
2019-03-04T12:55:28.921Z,14.26
2019-03-04T12:57:58.471Z,14.31
2019-03-04T13:00:28.024Z,14.57
2019-03-04T13:02:58.207Z,14.56
2019-03-04T13:05:27.751Z,14.46
2019-03-04T13:07:57.258Z,14.39
2019-03-04T13:10:26.983Z,14.40
2019-03-04T13:12:56.509Z,14.48
2019-03-04T13:15:26.122Z,14.56
2019-03-04T13:17:55.686Z,14.39
2019-03-04T13:20:25.225Z,14.33
2019-03-04T13:22:54.795Z,14.27
2019-03-04T13:25:24.314Z,14.38
2019-03-04T13:27:53.836Z,14.49
2019-03-04T13:30:23.849Z,14.51
2019-03-04T13:32:53.559Z,14.64
2019-03-04T13:35:24.876Z,14.70
2019-03-04T13:37:54.584Z,14.63
2019-03-04T13:40:24.083Z,14.65
2019-03-04T13:42:53.732Z,14.68
2019-03-04T13:45:23.553Z,14.71
2019-03-04T13:47:53.180Z,14.63
2019-03-04T13:50:23.378Z,14.71
2019-03-04T13:52:52.885Z,14.69
2019-03-04T13:55:22.510Z,14.76
2019-03-04T13:57:52.095Z,14.87
2019-03-04T14:00:21.916Z,14.69
2019-03-04T14:02:51.480Z,14.58
2019-03-04T14:05:21.366Z,14.68
2019-03-04T14:07:50.898Z,14.74
2019-03-04T14:10:20.991Z,14.86
2019-03-04T14:12:50.463Z,14.77
2019-03-04T14:15:23.219Z,14.75
2019-03-04T14:17:52.820Z,14.76
2019-03-04T14:20:22.347Z,14.81
2019-03-04T14:22:57.568Z,14.79
2019-03-04T14:25:23.199Z,14.74
2019-03-04T14:27:52.718Z,14.71
2019-03-04T14:30:22.446Z,14.79
2019-03-04T14:32:51.972Z,14.83
2019-03-04T14:35:21.488Z,14.81
2019-03-04T14:37:50.997Z,14.74
2019-03-04T14:40:20.530Z,14.77
2019-03-04T14:42:50.088Z,14.80
2019-03-04T14:45:19.844Z,14.87
2019-03-04T14:47:49.604Z,14.82
2019-03-04T14:50:19.374Z,14.81
2019-03-04T14:52:48.877Z,14.79
2019-03-04T14:55:19.136Z,14.82
2019-03-04T14:57:48.697Z,14.80
2019-03-04T15:00:22.623Z,14.87
2019-03-04T15:02:52.139Z,14.84
2019-03-04T15:05:21.761Z,14.78
2019-03-04T15:07:51.239Z,14.76
2019-03-04T15:10:20.935Z,14.75
2019-03-04T15:12:50.483Z,14.73
2019-03-04T15:15:20.108Z,14.77
2019-03-04T15:17:49.676Z,14.81
2019-03-04T15:20:20.990Z,14.76
2019-03-04T15:22:50.485Z,14.76
2019-03-04T15:25:22.374Z,14.76
2019-03-04T15:27:51.885Z,14.76
2019-03-04T15:30:21.535Z,14.72
2019-03-04T15:32:51.089Z,14.72
2019-03-04T15:35:20.623Z,14.78
2019-03-04T15:37:50.147Z,14.74
2019-03-04T15:40:19.618Z,14.68
2019-03-04T15:42:49.119Z,14.64
2019-03-04T15:45:18.673Z,14.64
2019-03-04T15:47:48.229Z,14.57
2019-03-04T15:50:17.765Z,14.57
2019-03-04T15:52:47.285Z,14.49
2019-03-04T15:55:16.758Z,14.44
2019-03-04T15:57:48.693Z,14.45
2019-03-04T16:00:18.177Z,14.47
2019-03-04T16:02:48.899Z,14.45
2019-03-04T16:05:18.613Z,14.31
2019-03-04T16:07:48.220Z,14.22
2019-03-04T16:10:18.605Z,14.11
2019-03-04T16:12:48.136Z,14.06
2019-03-04T16:15:18.175Z,14.01
2019-03-04T16:17:48.676Z,14.01
2019-03-04T16:20:18.436Z,13.91
2019-03-04T16:22:48.182Z,13.82
2019-03-04T16:25:17.801Z,13.85
2019-03-04T16:27:49.611Z,13.78
2019-03-04T16:30:20.176Z,13.72
2019-03-04T16:32:49.722Z,13.71
2019-03-04T16:35:19.314Z,13.62
2019-03-04T16:37:48.846Z,13.54
2019-03-04T16:40:18.421Z,13.60
2019-03-04T16:42:47.954Z,13.54
2019-03-04T16:45:17.740Z,13.37
2019-03-04T16:47:47.550Z,13.23
2019-03-04T16:50:17.325Z,13.18
2019-03-04T16:52:47.244Z,13.15
2019-03-04T16:55:17.167Z,13.09
2019-03-04T16:57:46.801Z,13.04
2019-03-04T17:00:17.842Z,13.06
2019-03-04T17:02:47.454Z,13.28
2019-03-04T17:05:17.687Z,13.35
2019-03-04T17:07:47.416Z,13.25
2019-03-04T17:10:18.177Z,13.15
2019-03-04T17:12:47.713Z,13.11
2019-03-04T17:15:18.947Z,13.17
2019-03-04T17:17:48.682Z,13.16
2019-03-04T17:20:19.088Z,13.15
2019-03-04T17:22:48.728Z,13.12
2019-03-04T17:25:18.390Z,13.14
2019-03-04T17:27:48.156Z,13.15
2019-03-04T17:30:18.632Z,13.11
2019-03-04T17:32:48.324Z,13.15
2019-03-04T17:35:18.537Z,13.20
2019-03-04T17:37:48.173Z,13.27
2019-03-04T17:40:18.240Z,13.24
2019-03-04T17:42:47.874Z,13.24
2019-03-04T17:45:18.023Z,13.11
2019-03-04T17:47:47.605Z,12.62
2019-03-04T17:50:27.830Z,12.39
2019-03-04T17:52:57.321Z,12.11
2019-03-04T17:55:26.817Z,11.92
2019-03-04T17:57:56.576Z,11.83
2019-03-04T18:00:26.200Z,11.76
2019-03-04T18:02:55.722Z,11.89
2019-03-04T18:05:25.290Z,11.86
2019-03-04T18:07:54.816Z,11.84
2019-03-04T18:10:24.407Z,11.82
2019-03-04T18:12:54.899Z,11.95
2019-03-04T18:15:24.438Z,12.02
2019-03-04T18:17:54.022Z,12.08
2019-03-04T18:20:33.603Z,12.23
2019-03-04T18:22:54.831Z,12.34
2019-03-04T18:25:39.846Z,12.36
2019-03-04T18:28:57.535Z,12.42
2019-03-04T18:31:49.258Z,12.38
2019-03-04T18:34:58.416Z,12.49
2019-03-04T18:37:39.913Z,12.43
2019-03-04T18:40:38.814Z,12.43
2019-03-04T18:44:01.779Z,12.42
2019-03-04T18:46:56.907Z,12.46
2019-03-04T18:49:26.423Z,12.45
2019-03-04T18:51:55.987Z,12.46
2019-03-04T18:54:25.507Z,12.64
2019-03-04T18:56:55.222Z,12.66
2019-03-04T18:59:24.770Z,12.65
2019-03-04T19:01:54.269Z,12.66
2019-03-04T19:04:23.875Z,12.60
2019-03-04T19:06:53.390Z,12.63
2019-03-04T19:09:22.953Z,12.60
2019-03-04T19:11:52.443Z,12.53
2019-03-04T19:14:21.954Z,12.47
2019-03-04T19:16:52.703Z,12.58
2019-03-04T19:19:22.227Z,12.58
2019-03-04T19:21:51.752Z,12.37
2019-03-04T19:24:21.290Z,12.32
2019-03-04T19:26:50.814Z,12.21
2019-03-04T19:29:20.419Z,12.12
2019-03-04T19:31:50.038Z,12.05
2019-03-04T19:34:19.633Z,11.83
2019-03-04T19:36:49.189Z,11.66
2019-03-04T19:39:18.777Z,11.54
2019-03-04T19:41:48.297Z,11.44
2019-03-04T19:44:17.862Z,11.37
2019-03-04T19:46:47.458Z,11.26
2019-03-04T19:49:16.995Z,11.17
2019-03-04T19:51:46.562Z,11.13
2019-03-04T19:54:16.193Z,11.02
2019-03-04T19:56:45.688Z,11.02
2019-03-04T19:59:15.308Z,11.02
2019-03-04T20:01:44.843Z,11.08
2019-03-04T20:04:14.368Z,10.99
2019-03-04T20:06:43.892Z,10.84
2019-03-04T20:09:13.605Z,10.74
2019-03-04T20:11:43.088Z,10.62
2019-03-04T20:14:12.608Z,10.61
2019-03-04T20:16:42.232Z,10.61
2019-03-04T20:19:11.778Z,10.59
2019-03-04T20:21:41.273Z,10.57
2019-03-04T20:24:10.745Z,10.62
2019-03-04T20:26:40.290Z,10.63
2019-03-04T20:29:09.769Z,10.63
2019-03-04T20:31:39.526Z,10.61
2019-03-04T20:34:09.017Z,10.61
2019-03-04T20:36:38.558Z,10.58
2019-03-04T20:39:10.383Z,10.59
2019-03-04T20:41:39.936Z,10.61
2019-03-04T20:44:09.452Z,10.54
2019-03-04T20:46:42.412Z,10.46
2019-03-04T20:49:12.006Z,10.37
2019-03-04T20:51:41.531Z,10.28
2019-03-04T20:54:11.030Z,10.13
2019-03-04T20:56:40.543Z,9.94
2019-03-04T20:59:10.090Z,9.79
2019-03-04T21:01:39.893Z,9.57
2019-03-04T21:04:09.522Z,9.37
2019-03-04T21:06:39.176Z,9.14
2019-03-04T21:09:10.623Z,9.02
2019-03-04T21:11:40.249Z,9.03
2019-03-04T21:14:09.743Z,8.97
2019-03-04T21:16:39.264Z,8.93
2019-03-04T21:19:08.738Z,8.92
2019-03-04T21:21:38.366Z,8.90
2019-03-04T21:24:07.865Z,8.96
2019-03-04T21:26:48.578Z,9.00
2019-03-04T21:29:47.707Z,9.00
2019-03-04T21:32:37.784Z,9.04
2019-03-04T21:35:53.258Z,9.04
2019-03-04T21:38:29.134Z,8.93
2019-03-04T21:41:07.553Z,8.98
2019-03-04T21:43:45.177Z,8.98
2019-03-04T21:46:56.069Z,9.01
2019-03-04T21:49:26.811Z,9.02
2019-03-04T21:52:28.185Z,8.93
2019-03-04T21:54:57.777Z,8.97
2019-03-04T21:57:33.757Z,8.82
2019-03-04T22:00:03.638Z,8.78
2019-03-04T22:02:54.011Z,8.82
2019-03-04T22:05:23.597Z,8.85
2019-03-04T22:07:53.181Z,8.81
2019-03-04T22:10:22.770Z,8.68
2019-03-04T22:12:52.291Z,8.64
2019-03-04T22:15:21.809Z,8.60
2019-03-04T22:17:51.398Z,8.55
2019-03-04T22:20:20.908Z,8.58
2019-03-04T22:22:50.580Z,8.66
2019-03-04T22:25:21.224Z,8.66
2019-03-04T22:27:50.751Z,8.55
2019-03-04T22:30:20.470Z,8.56
2019-03-04T22:32:49.962Z,8.54
2019-03-04T22:35:21.127Z,8.57
2019-03-04T22:37:50.692Z,8.56
2019-03-04T22:40:20.941Z,8.56
2019-03-04T22:42:50.460Z,8.53
2019-03-04T22:45:20.145Z,8.48
2019-03-04T22:47:50.211Z,8.45
2019-03-04T22:50:20.315Z,8.47
2019-03-04T22:52:49.843Z,8.48
2019-03-04T22:55:26.190Z,8.43
2019-03-04T22:57:55.721Z,8.36
2019-03-04T23:01:22.860Z,8.33
2019-03-04T23:03:52.992Z,8.25
2019-03-04T23:06:25.449Z,8.17
2019-03-04T23:08:54.909Z,8.14
2019-03-04T23:11:27.530Z,8.10
2019-03-04T23:14:15.950Z,8.03
2019-03-04T23:16:45.458Z,7.95
2019-03-04T23:19:14.950Z,7.94
2019-03-04T23:21:44.491Z,7.86
2019-03-04T23:24:13.985Z,7.83
2019-03-04T23:26:43.498Z,7.88
2019-03-04T23:29:13.024Z,7.93
2019-03-04T23:31:42.525Z,7.91
2019-03-04T23:34:12.020Z,7.88
2019-03-04T23:36:41.580Z,7.79
2019-03-04T23:39:11.464Z,7.79
2019-03-04T23:41:40.919Z,7.77
2019-03-04T23:44:10.611Z,7.79
2019-03-04T23:46:40.144Z,7.82
2019-03-04T23:49:09.670Z,7.83
2019-03-04T23:51:39.178Z,7.78
2019-03-04T23:54:08.671Z,7.67
2019-03-04T23:56:38.864Z,7.66
2019-03-04T23:59:08.384Z,7.66
